Time;durP1;ratioP1;P1;durP2;ratioP2;P2;SDS_P1;SDS_P2;PMS_P1;PMS_P2;Temp;Humidity;BMP_temperature;BMP_pressure;BME280_temperature;BME280_humidity;BME280_pressure;Samples;Min_cycle;Max_cycle;Signal;HPM_P1;HPM_P2
2022/06/15 00:01:26;;;;;;;4.80;4.10;;;15.90;99.90;;;;;;5075504;28;20172;-35
2022/06/15 00:03:53;;;;;;;6.37;4.43;;;15.90;99.90;;;;;;5061776;28;20180;-35
2022/06/15 00:06:22;;;;;;;5.70;4.67;;;15.80;99.90;;;;;;5059093;28;20193;-35
2022/06/15 00:08:52;;;;;;;4.83;4.40;;;15.80;99.90;;;;;;5090364;28;20176;-35
2022/06/15 00:11:26;;;;;;;6.23;4.60;;;15.90;99.90;;;;;;5051406;28;20185;-34
2022/06/15 00:13:54;;;;;;;6.57;4.63;;;15.90;99.90;;;;;;5072765;28;20188;-34
2022/06/15 00:16:20;;;;;;;5.23;4.63;;;15.90;99.90;;;;;;5055011;28;20557;-34
2022/06/15 00:18:47;;;;;;;5.33;4.10;;;16.00;99.90;;;;;;5039237;28;20192;-34
2022/06/15 00:21:15;;;;;;;6.17;4.50;;;15.90;99.90;;;;;;5038197;28;20177;-35
2022/06/15 00:23:41;;;;;;;5.00;4.17;;;15.90;99.90;;;;;;5054900;28;20177;-34
2022/06/15 00:26:07;;;;;;;5.60;4.50;;;15.90;99.90;;;;;;5037802;28;20331;-34
2022/06/15 00:28:34;;;;;;;6.87;4.47;;;15.90;99.90;;;;;;5054861;28;20203;-34
2022/06/15 00:31:01;;;;;;;5.67;4.33;;;15.90;99.90;;;;;;5056492;28;20212;-34
2022/06/15 00:33:28;;;;;;;6.80;4.33;;;15.80;99.90;;;;;;5063440;28;20551;-34
2022/06/15 00:35:57;;;;;;;5.57;4.37;;;15.80;99.90;;;;;;5057624;28;20192;-35
2022/06/15 00:38:29;;;;;;;4.63;4.17;;;15.70;99.90;;;;;;5073025;28;20234;-34
2022/06/15 00:40:57;;;;;;;5.33;4.43;;;15.60;99.90;;;;;;5056017;28;20235;-34
2022/06/15 00:43:29;;;;;;;6.30;4.70;;;15.50;99.90;;;;;;5054282;28;20177;-34
2022/06/15 00:45:55;;;;;;;8.57;4.30;;;15.30;99.90;;;;;;5045116;28;20200;-34
2022/06/15 00:48:21;;;;;;;5.20;4.30;;;15.20;99.90;;;;;;5084651;28;20205;-34
2022/06/15 00:50:47;;;;;;;5.37;4.47;;;15.00;99.90;;;;;;5055088;28;20280;-36
2022/06/15 00:53:13;;;;;;;7.73;4.70;;;14.90;99.90;;;;;;5072272;28;20222;-37
2022/06/15 00:55:40;;;;;;;9.13;4.97;;;14.90;99.90;;;;;;5054329;28;20177;-38
2022/06/15 00:58:09;;;;;;;5.47;4.87;;;14.90;99.90;;;;;;5053768;28;20224;-35
2022/06/15 01:00:35;;;;;;;4.90;4.40;;;14.80;99.90;;;;;;5046291;28;20177;-36
2022/06/15 01:03:01;;;;;;;6.10;4.37;;;14.70;99.90;;;;;;5041576;28;20206;-36
2022/06/15 01:05:42;;;;;;;6.87;4.47;;;14.70;99.90;;;;;;5047359;28;20195;-35
2022/06/15 01:08:33;;;;;;;5.03;4.53;;;14.70;99.90;;;;;;5054992;28;20181;-36
2022/06/15 01:11:29;;;;;;;6.13;4.33;;;14.60;99.90;;;;;;5068127;28;20209;-36
2022/06/15 01:14:13;;;;;;;6.30;4.50;;;14.60;99.90;;;;;;5048010;28;20181;-35
2022/06/15 01:16:45;;;;;;;5.77;4.47;;;14.60;99.90;;;;;;5036969;28;20219;-37
2022/06/15 01:19:51;;;;;;;5.40;4.90;;;14.60;99.90;;;;;;5068910;28;20211;-35
2022/06/15 01:22:26;;;;;;;5.70;4.47;;;14.60;99.90;;;;;;5037286;28;20184;-36
2022/06/15 01:25:30;;;;;;;6.83;4.57;;;14.50;99.90;;;;;;5053495;28;20207;-37
2022/06/15 01:28:16;;;;;;;7.17;4.93;;;14.50;99.90;;;;;;4971029;28;20187;-35
2022/06/15 01:30:50;;;;;;;5.63;4.70;;;14.50;99.90;;;;;;5036000;28;20196;-35
2022/06/15 01:34:02;;;;;;;5.90;4.90;;;14.50;99.90;;;;;;5055416;28;20181;-37
2022/06/15 01:36:55;;;;;;;5.27;4.77;;;14.50;99.90;;;;;;5035375;28;20220;-36
2022/06/15 01:40:06;;;;;;;6.27;4.80;;;14.50;99.90;;;;;;5047715;28;20181;-37
2022/06/15 01:42:45;;;;;;;8.03;6.00;;;14.50;99.90;;;;;;5053073;28;20698;-35
2022/06/15 01:45:15;;;;;;;8.33;6.03;;;14.40;99.90;;;;;;5066021;28;20207;-36
2022/06/15 01:47:45;;;;;;;8.60;6.33;;;14.50;99.90;;;;;;5055579;28;20205;-37
2022/06/15 01:50:24;;;;;;;8.63;6.50;;;14.50;99.90;;;;;;5039927;28;20197;-34
2022/06/15 01:53:14;;;;;;;7.83;6.40;;;14.60;99.90;;;;;;5036884;28;20212;-33
2022/06/15 01:56:02;;;;;;;8.20;6.10;;;14.60;99.90;;;;;;5052946;28;20272;-34
2022/06/15 01:58:32;;;;;;;8.97;6.50;;;14.50;99.90;;;;;;5053542;28;20184;-33
2022/06/15 02:01:14;;;;;;;8.87;6.03;;;14.50;99.90;;;;;;5036415;28;20180;-33
2022/06/15 02:04:00;;;;;;;7.30;5.93;;;14.50;99.90;;;;;;5056903;28;20223;-33
2022/06/15 02:06:38;;;;;;;7.77;5.40;;;14.50;99.90;;;;;;5072346;28;20234;-35
2022/06/15 02:09:04;;;;;;;6.43;5.30;;;14.40;99.90;;;;;;5090621;28;20299;-34
2022/06/15 02:11:37;;;;;;;5.77;5.17;;;14.30;99.90;;;;;;5074291;28;20234;-33
2022/06/15 02:14:16;;;;;;;5.30;4.80;;;14.20;99.90;;;;;;5036447;28;20229;-35
2022/06/15 02:17:01;;;;;;;6.27;5.40;;;14.10;99.90;;;;;;5053780;28;20606;-33
2022/06/15 02:19:41;;;;;;;6.43;5.03;;;13.90;99.90;;;;;;5058238;28;20179;-34
2022/06/15 02:22:12;;;;;;;7.33;5.40;;;13.90;99.90;;;;;;5072558;28;20182;-33
2022/06/15 02:24:40;;;;;;;6.47;5.10;;;13.90;99.90;;;;;;5068668;28;20197;-33
2022/06/15 02:27:08;;;;;;;5.73;5.13;;;13.90;99.90;;;;;;5052622;28;20208;-34
2022/06/15 02:29:38;;;;;;;8.13;5.37;;;13.90;99.90;;;;;;5056125;28;20169;-33
2022/06/15 02:32:10;;;;;;;8.37;5.57;;;14.00;99.90;;;;;;5036422;28;20192;-33
2022/06/15 02:34:36;;;;;;;5.63;5.00;;;14.10;99.90;;;;;;5036735;28;20186;-35
2022/06/15 02:37:05;;;;;;;6.17;4.40;;;14.20;99.90;;;;;;5070591;28;20206;-33
2022/06/15 02:39:32;;;;;;;5.47;4.97;;;14.10;99.90;;;;;;5052678;28;20188;-34
2022/06/15 02:42:02;;;;;;;7.63;4.80;;;14.10;99.90;;;;;;5055572;28;20266;-34
2022/06/15 02:44:33;;;;;;;7.20;5.10;;;14.00;99.90;;;;;;5052209;28;20215;-34
2022/06/15 02:46:59;;;;;;;6.80;5.10;;;13.90;99.90;;;;;;5047749;28;20201;-33
2022/06/15 02:49:26;;;;;;;5.50;4.90;;;13.80;99.90;;;;;;5056640;28;20175;-35
2022/06/15 02:52:01;;;;;;;6.17;4.73;;;13.60;99.90;;;;;;5059505;28;20258;-36
2022/06/15 02:54:34;;;;;;;5.70;5.13;;;13.50;99.90;;;;;;5057018;28;20188;-35
2022/06/15 02:57:08;;;;;;;8.80;5.63;;;13.40;99.90;;;;;;5073596;28;20204;-36
2022/06/15 02:59:34;;;;;;;9.17;5.27;;;13.20;99.90;;;;;;5074747;28;20223;-35
2022/06/15 03:02:01;;;;;;;7.87;5.67;;;13.10;99.90;;;;;;5056263;28;20216;-35
2022/06/15 03:04:27;;;;;;;8.67;5.40;;;13.10;99.90;;;;;;5056203;28;20263;-36
2022/06/15 03:06:53;;;;;;;6.27;5.60;;;13.20;99.90;;;;;;5056086;28;20209;-35
2022/06/15 03:09:20;;;;;;;6.60;5.50;;;13.20;99.90;;;;;;5039909;28;20257;-36
2022/06/15 03:11:50;;;;;;;6.83;5.30;;;13.30;99.90;;;;;;5060212;28;20186;-36
2022/06/15 03:14:23;;;;;;;9.77;5.23;;;13.40;99.90;;;;;;5057253;28;20184;-36
2022/06/15 03:16:54;;;;;;;7.20;5.47;;;13.50;99.90;;;;;;5056103;28;20216;-36
2022/06/15 03:19:22;;;;;;;6.43;5.33;;;13.40;99.90;;;;;;5058252;28;20181;-35
2022/06/15 03:21:55;;;;;;;5.87;5.07;;;13.40;99.90;;;;;;5056674;28;20314;-36
2022/06/15 03:24:21;;;;;;;6.43;5.03;;;13.40;99.90;;;;;;5056210;28;20648;-35
2022/06/15 03:26:48;;;;;;;10.23;5.53;;;13.50;99.90;;;;;;5039439;28;20241;-35
2022/06/15 03:29:19;;;;;;;10.30;5.80;;;13.50;99.90;;;;;;5075136;28;20176;-35
2022/06/15 03:31:48;;;;;;;8.00;5.27;;;13.50;99.90;;;;;;5051658;28;20262;-35
2022/06/15 03:34:15;;;;;;;7.83;5.20;;;13.50;99.90;;;;;;5061905;28;20639;-35
2022/06/15 03:36:41;;;;;;;6.20;5.23;;;13.40;99.90;;;;;;5058737;28;20346;-35
2022/06/15 03:39:07;;;;;;;6.33;5.73;;;13.40;99.90;;;;;;5055253;28;20172;-35
2022/06/15 03:41:37;;;;;;;7.27;4.73;;;13.40;99.90;;;;;;5071101;28;20178;-35
2022/06/15 03:44:04;;;;;;;9.20;5.60;;;13.40;99.90;;;;;;5075130;28;20257;-35
2022/06/15 03:46:30;;;;;;;6.93;5.53;;;13.40;99.90;;;;;;5064975;28;20220;-35
2022/06/15 03:49:06;;;;;;;9.13;5.23;;;13.40;99.90;;;;;;5069203;28;20180;-37
2022/06/15 03:51:33;;;;;;;6.30;4.73;;;13.40;99.90;;;;;;5055035;28;20179;-34
2022/06/15 03:54:02;;;;;;;6.37;5.17;;;13.40;99.90;;;;;;5039223;28;20176;-34
2022/06/15 03:56:44;;;;;;;5.73;5.13;;;13.30;99.90;;;;;;5048320;28;20210;-33
2022/06/15 03:59:14;;;;;;;5.83;5.00;;;13.30;99.90;;;;;;5057436;28;20219;-33
2022/06/15 04:01:41;;;;;;;7.53;5.07;;;13.20;99.90;;;;;;5070335;28;20216;-34
2022/06/15 04:04:09;;;;;;;8.97;5.10;;;13.20;99.90;;;;;;5045006;28;20219;-34
2022/06/15 04:06:35;;;;;;;7.80;5.30;;;13.20;99.90;;;;;;5038812;28;20234;-37
2022/06/15 04:09:02;;;;;;;8.57;5.80;;;13.20;99.90;;;;;;5053531;28;20245;-34
2022/06/15 04:14:24;;;;;;;7.73;5.13;;;13.20;99.90;;;;;;5071792;28;20642;-34
2022/06/15 04:17:13;;;;;;;8.03;5.77;;;13.20;99.90;;;;;;5052900;28;20238;-34
2022/06/15 04:22:47;;;;;;;5.40;4.90;;;13.30;99.90;;;;;;5068696;28;20184;-36
2022/06/15 04:25:13;;;;;;;8.20;5.33;;;13.30;99.90;;;;;;5055959;28;20194;-34
2022/06/15 04:27:39;;;;;;;6.80;4.93;;;13.40;99.90;;;;;;5067951;28;20247;-35
2022/06/15 04:30:11;;;;;;;6.37;5.67;;;13.40;99.90;;;;;;5056818;28;20173;-35
2022/06/15 04:32:38;;;;;;;8.17;4.87;;;13.40;99.90;;;;;;5067648;28;20181;-35
2022/06/15 04:35:07;;;;;;;6.03;5.30;;;13.50;99.90;;;;;;5071228;28;20209;-33
2022/06/15 04:37:37;;;;;;;8.00;5.93;;;13.50;99.90;;;;;;5072214;28;20193;-34
2022/06/15 04:40:14;;;;;;;9.67;5.33;;;13.60;99.90;;;;;;5074739;28;20186;-35
2022/06/15 04:42:41;;;;;;;7.33;5.50;;;13.70;99.90;;;;;;5060438;28;20267;-34
2022/06/15 04:45:09;;;;;;;6.53;5.07;;;13.70;99.90;;;;;;5069243;28;20181;-34
2022/06/15 04:47:44;;;;;;;7.80;5.40;;;13.70;99.90;;;;;;5055446;28;20207;-36
2022/06/15 04:50:13;;;;;;;8.30;5.63;;;13.80;99.90;;;;;;5045470;28;20186;-35
2022/06/15 04:52:45;;;;;;;6.43;5.40;;;13.80;99.90;;;;;;5062426;28;20628;-36
2022/06/15 04:55:15;;;;;;;8.27;5.33;;;13.80;99.90;;;;;;5062217;28;20641;-36
2022/06/15 04:57:42;;;;;;;6.40;5.20;;;13.80;99.90;;;;;;5055420;28;20244;-34
2022/06/15 05:00:12;;;;;;;6.57;5.80;;;13.80;99.90;;;;;;5055481;28;20260;-34
2022/06/15 05:02:38;;;;;;;7.83;5.50;;;13.80;99.90;;;;;;5054082;28;20173;-35
2022/06/15 05:05:07;;;;;;;6.63;5.33;;;13.90;99.90;;;;;;5053679;28;20235;-34
2022/06/15 05:07:33;;;;;;;6.83;5.77;;;14.00;99.90;;;;;;5054917;28;20203;-34
2022/06/15 05:10:16;;;;;;;6.67;5.50;;;14.10;99.90;;;;;;5073988;28;20173;-34
2022/06/15 05:12:43;;;;;;;6.60;5.27;;;14.20;99.90;;;;;;5056069;28;20259;-34
2022/06/15 05:15:09;;;;;;;6.10;5.40;;;14.30;99.90;;;;;;5056659;28;20184;-34
2022/06/15 05:17:36;;;;;;;5.97;4.80;;;14.40;99.90;;;;;;5056659;28;20208;-36
2022/06/15 05:20:03;;;;;;;7.30;5.20;;;14.50;99.90;;;;;;5056669;28;20172;-35
2022/06/15 05:22:32;;;;;;;5.43;4.90;;;14.60;99.90;;;;;;5049148;28;20177;-34
2022/06/15 05:25:01;;;;;;;8.40;5.40;;;14.70;99.90;;;;;;5053896;28;20189;-34
2022/06/15 05:27:27;;;;;;;7.17;5.10;;;14.80;99.90;;;;;;5053869;28;20205;-35
2022/06/15 05:29:55;;;;;;;6.67;4.97;;;14.90;99.90;;;;;;5055746;28;20173;-34
2022/06/15 05:32:21;;;;;;;6.37;5.73;;;14.90;99.90;;;;;;5051251;28;20192;-34
2022/06/15 05:34:47;;;;;;;5.90;5.30;;;15.00;99.90;;;;;;5047582;28;20199;-35
2022/06/15 05:37:16;;;;;;;5.57;4.90;;;15.10;99.90;;;;;;5069242;28;20267;-34
2022/06/15 05:39:42;;;;;;;6.00;5.40;;;15.20;99.90;;;;;;5070904;28;20302;-35
2022/06/15 05:42:09;;;;;;;6.60;4.90;;;15.40;99.90;;;;;;5076784;28;20180;-34
2022/06/15 05:47:03;;;;;;;5.47;4.97;;;15.60;99.90;;;;;;5074082;28;20208;-35
2022/06/15 05:49:42;;;;;;;8.30;5.23;;;15.80;99.90;;;;;;5073744;28;20185;-34
2022/06/15 05:52:10;;;;;;;6.37;5.70;;;15.90;99.90;;;;;;5056896;28;20311;-35
2022/06/15 05:54:40;;;;;;;6.93;5.53;;;16.10;99.90;;;;;;5056104;28;20181;-35
2022/06/15 05:57:18;;;;;;;10.07;5.57;;;16.20;99.90;;;;;;5071690;28;20215;-34
2022/06/15 05:59:48;;;;;;;7.50;5.70;;;16.30;99.90;;;;;;5070363;28;20177;-36
2022/06/15 06:02:15;;;;;;;7.33;5.57;;;16.50;99.90;;;;;;5070136;28;20267;-34
2022/06/15 06:04:41;;;;;;;5.80;5.30;;;16.60;99.90;;;;;;5035349;28;20181;-34
2022/06/15 06:07:10;;;;;;;6.13;5.50;;;16.70;99.90;;;;;;5062820;28;20204;-34
2022/06/15 06:09:35;;;;;;;7.83;5.50;;;16.80;99.90;;;;;;5090898;28;20192;-36
2022/06/15 06:12:02;;;;;;;6.90;5.47;;;17.00;99.90;;;;;;5072652;28;20204;-37
2022/06/15 06:14:28;;;;;;;5.83;5.23;;;17.10;99.90;;;;;;5056138;28;20203;-34
2022/06/15 06:16:54;;;;;;;8.02;5.43;;;17.30;99.90;;;;;;5054914;28;20236;-34
2022/06/15 06:19:19;;;;;;;6.33;5.43;;;17.50;99.90;;;;;;5072973;28;20223;-34
2022/06/15 06:21:45;;;;;;;6.97;5.20;;;17.60;99.90;;;;;;5056401;28;20212;-34
2022/06/15 06:24:12;;;;;;;6.30;5.13;;;17.80;99.90;;;;;;5055277;28;20190;-34
2022/06/15 06:26:38;;;;;;;8.30;5.70;;;17.90;99.90;;;;;;5036027;28;20208;-35
2022/06/15 06:29:06;;;;;;;7.43;5.25;;;18.20;99.90;;;;;;5052690;28;20180;-35
2022/06/15 06:31:32;;;;;;;5.95;5.45;;;18.40;99.90;;;;;;5072838;28;20688;-34
2022/06/15 06:33:58;;;;;;;9.93;5.43;;;18.50;99.90;;;;;;5036991;28;20174;-36
2022/06/15 06:36:33;;;;;;;7.95;5.00;;;18.70;99.90;;;;;;5053774;28;20197;-34
2022/06/15 06:39:02;;;;;;;7.45;5.05;;;18.80;99.90;;;;;;5052780;28;20180;-35
2022/06/15 06:41:30;;;;;;;7.97;5.05;;;18.90;99.90;;;;;;5053106;28;20217;-36
2022/06/15 06:43:59;;;;;;;8.68;5.43;;;19.20;99.90;;;;;;5035554;28;20177;-37
2022/06/15 06:46:29;;;;;;;7.07;5.53;;;19.30;99.90;;;;;;5052735;28;20193;-36
2022/06/15 06:48:56;;;;;;;7.05;4.88;;;19.40;99.90;;;;;;5053455;28;20177;-37
2022/06/15 06:51:22;;;;;;;5.15;4.65;;;19.50;99.90;;;;;;5051562;28;20177;-36
2022/06/15 06:53:48;;;;;;;7.47;4.60;;;19.70;99.90;;;;;;5052245;28;20204;-37
2022/06/15 06:56:14;;;;;;;4.60;4.10;;;20.00;99.90;;;;;;5052529;28;20223;-37
2022/06/15 06:58:40;;;;;;;5.32;4.45;;;20.20;99.90;;;;;;5052755;28;20177;-36
2022/06/15 07:01:07;;;;;;;4.75;4.18;;;20.40;99.90;;;;;;5052610;28;20178;-36
2022/06/15 07:03:33;;;;;;;7.40;4.72;;;20.50;99.90;;;;;;5052013;28;20212;-36
2022/06/15 07:06:07;;;;;;;4.65;4.25;;;20.40;99.90;;;;;;5035640;28;20233;-37
2022/06/15 07:08:33;;;;;;;4.70;4.28;;;20.50;99.90;;;;;;5035507;28;20228;-37
2022/06/15 07:11:00;;;;;;;6.55;4.20;;;20.60;99.90;;;;;;5036032;28;20174;-36
2022/06/15 07:13:26;;;;;;;5.45;3.53;;;20.50;99.90;;;;;;5052388;28;20231;-36
2022/06/15 07:15:52;;;;;;;5.68;4.28;;;20.70;99.90;;;;;;5052312;28;20239;-38
2022/06/15 07:18:18;;;;;;;5.22;3.85;;;20.90;99.90;;;;;;5052386;28;20193;-37
2022/06/15 07:20:44;;;;;;;6.18;3.92;;;21.00;99.90;;;;;;5035648;28;20189;-37
2022/06/15 07:23:11;;;;;;;4.82;3.95;;;21.20;99.90;;;;;;5036328;28;20189;-38
2022/06/15 07:25:37;;;;;;;4.97;3.85;;;21.40;99.90;;;;;;5036284;28;20186;-38
2022/06/15 07:28:04;;;;;;;4.85;3.75;;;21.40;99.90;;;;;;5062664;28;20212;-41
2022/06/15 07:30:32;;;;;;;6.55;4.03;;;21.60;99.90;;;;;;5079351;28;20169;-42
2022/06/15 07:33:00;;;;;;;5.43;4.00;;;21.70;99.90;;;;;;5057875;28;20274;-39
2022/06/15 07:35:31;;;;;;;6.80;3.97;;;22.00;99.90;;;;;;5057592;28;20178;-37
2022/06/15 07:37:59;;;;;;;7.35;4.65;;;22.20;99.90;;;;;;5064890;28;20177;-36
2022/06/15 07:40:29;;;;;;;4.68;4.00;;;22.40;99.90;;;;;;5046671;28;20177;-37
2022/06/15 07:43:00;;;;;;;6.38;4.13;;;22.50;99.90;;;;;;5060717;28;20188;-36
2022/06/15 07:45:34;;;;;;;5.15;3.90;;;22.60;99.90;;;;;;5061308;28;20189;-36
2022/06/15 07:50:47;;;;;;;5.07;3.40;;;22.60;99.90;;;;;;5079960;28;20185;-39
2022/06/15 07:53:15;;;;;;;6.47;3.67;;;22.80;99.90;;;;;;5054137;28;20181;-38
2022/06/15 07:55:45;;;;;;;4.70;3.67;;;22.90;99.90;;;;;;5047512;28;20186;-38
2022/06/15 07:58:13;;;;;;;4.38;3.30;;;23.10;99.90;;;;;;5038393;28;20190;-37
2022/06/15 08:00:42;;;;;;;5.20;3.47;;;23.30;99.90;;;;;;5055152;28;20209;-38
2022/06/15 08:03:15;;;;;;;3.40;3.10;;;23.40;99.90;;;;;;5055226;28;20642;-41
2022/06/15 08:05:49;;;;;;;4.25;3.13;;;23.40;99.90;;;;;;5037745;28;20250;-39
2022/06/15 08:08:25;;;;;;;4.80;3.17;;;23.60;99.90;;;;;;5041086;28;20213;-39
2022/06/15 08:10:59;;;;;;;3.30;2.85;;;23.70;99.90;;;;;;5058359;28;20200;-39
2022/06/15 08:13:26;;;;;;;3.90;3.00;;;23.80;99.90;;;;;;5072976;28;20223;-38
2022/06/15 08:15:56;;;;;;;5.50;3.35;;;24.00;99.90;;;;;;5037611;28;20279;-39
2022/06/15 08:18:28;;;;;;;4.10;3.40;;;24.20;99.90;;;;;;5038386;28;20189;-37
2022/06/15 08:21:05;;;;;;;3.72;3.15;;;24.30;99.90;;;;;;5054886;28;20185;-38
2022/06/15 08:23:34;;;;;;;6.65;3.58;;;24.50;99.90;;;;;;5054695;28;20180;-38
2022/06/15 08:26:08;;;;;;;4.50;3.20;;;24.60;99.90;;;;;;5071582;28;20205;-41
2022/06/15 08:28:40;;;;;;;3.85;3.10;;;24.70;99.90;;;;;;5038189;28;20220;-39
2022/06/15 08:31:07;;;;;;;4.30;3.40;;;24.80;99.90;;;;;;5055359;28;20177;-38
2022/06/15 08:33:34;;;;;;;3.28;2.88;;;24.90;99.90;;;;;;5038218;28;20185;-37
2022/06/15 08:36:01;;;;;;;3.42;3.00;;;24.90;99.90;;;;;;5072467;28;20268;-42
2022/06/15 08:38:27;;;;;;;3.88;3.03;;;24.90;99.90;;;;;;5038405;28;20208;-40
2022/06/15 08:41:28;;;;;;;4.03;3.03;;;25.20;99.90;;;;;;5037810;28;20185;-43
2022/06/15 08:44:00;;;;;;;5.40;3.13;;;25.30;99.90;;;;;;5029737;28;20187;-39
2022/06/15 08:46:56;;;;;;;3.35;2.72;;;25.40;99.90;;;;;;5037365;28;20209;-38
2022/06/15 08:49:45;;;;;;;4.78;3.10;;;25.50;99.90;;;;;;5007067;28;20196;-38
2022/06/15 08:52:30;;;;;;;3.45;2.55;;;25.70;99.90;;;;;;5058968;28;20280;-42
2022/06/15 08:55:17;;;;;;;4.65;3.13;;;25.80;99.90;;;;;;5036723;28;20209;-38
2022/06/15 08:57:49;;;;;;;8.07;3.30;;;25.80;99.90;;;;;;5037829;28;20283;-41
2022/06/15 09:00:31;;;;;;;3.55;2.95;;;26.10;99.90;;;;;;5056680;28;20267;-37
2022/06/15 09:03:14;;;;;;;3.95;3.00;;;26.00;99.90;;;;;;5057539;28;20184;-39
2022/06/15 09:06:06;;;;;;;5.50;3.33;;;25.70;99.90;;;;;;5054658;28;20188;-40
2022/06/15 09:08:41;;;;;;;3.50;3.20;;;25.90;99.90;;;;;;5034658;28;20225;-40
2022/06/15 09:11:32;;;;;;;4.47;2.95;;;26.20;99.90;;;;;;5038476;28;20196;-38
2022/06/15 09:14:16;;;;;;;3.78;2.95;;;26.50;99.90;;;;;;5055001;28;20230;-40
2022/06/15 09:17:13;;;;;;;3.40;3.00;;;26.90;99.90;;;;;;5054895;28;20208;-39
2022/06/15 09:19:46;;;;;;;3.88;2.72;;;27.10;99.90;;;;;;5055177;28;20169;-41
2022/06/15 09:22:22;;;;;;;4.90;3.30;;;27.10;99.90;;;;;;5054738;28;20177;-38
2022/06/15 09:24:59;;;;;;;4.65;2.85;;;27.40;99.90;;;;;;5085130;28;20176;-38
2022/06/15 09:27:39;;;;;;;3.70;3.20;;;27.50;99.90;;;;;;5070484;28;20228;-39
2022/06/15 09:30:10;;;;;;;3.97;3.28;;;27.80;99.90;;;;;;5070049;28;20173;-40
2022/06/15 09:32:41;;;;;;;4.15;3.13;;;27.60;99.90;;;;;;5051930;28;20222;-43
2022/06/15 09:35:16;;;;;;;5.03;2.95;;;27.50;99.70;;;;;;5057847;28;20176;-38
2022/06/15 09:37:49;;;;;;;3.97;2.70;;;27.60;99.90;;;;;;5092637;28;20236;-39
2022/06/15 09:40:16;;;;;;;7.53;2.97;;;27.60;99.70;;;;;;5050200;28;20204;-41
2022/06/15 09:43:03;;;;;;;3.45;2.83;;;27.60;99.30;;;;;;5064210;28;20231;-41
2022/06/15 09:45:47;;;;;;;3.30;3.00;;;27.90;99.90;;;;;;5063490;28;20191;-39
2022/06/15 09:48:43;;;;;;;5.68;3.22;;;28.20;99.80;;;;;;5062607;28;20677;-41
2022/06/15 09:51:16;;;;;;;3.92;3.08;;;28.20;99.90;;;;;;5047286;28;20233;-39
2022/06/15 09:53:46;;;;;;;4.03;2.67;;;28.40;99.10;;;;;;5090595;28;20222;-38
2022/06/15 09:56:15;;;;;;;4.38;2.70;;;28.70;98.40;;;;;;5055762;28;20204;-41
2022/06/15 09:58:51;;;;;;;3.53;2.50;;;28.80;99.10;;;;;;5053320;28;20234;-41
2022/06/15 10:01:19;;;;;;;3.75;2.90;;;28.70;95.60;;;;;;5036389;28;20187;-39
2022/06/15 10:03:48;;;;;;;3.67;2.83;;;29.00;97.10;;;;;;5053476;28;20188;-40
2022/06/15 10:06:45;;;;;;;3.88;2.90;;;29.10;95.10;;;;;;5072511;28;20197;-42
2022/06/15 10:09:17;;;;;;;3.40;2.90;;;29.10;96.50;;;;;;5072914;28;20188;-42
2022/06/15 10:11:47;;;;;;;4.60;2.58;;;29.40;97.10;;;;;;5090945;28;20165;-40
2022/06/15 10:14:18;;;;;;;3.28;2.55;;;29.50;95.90;;;;;;5090609;28;20218;-38
2022/06/15 10:16:55;;;;;;;3.67;2.42;;;29.70;95.20;;;;;;5072969;28;20235;-39
2022/06/15 10:19:23;;;;;;;2.80;2.47;;;29.90;94.80;;;;;;5056361;28;20204;-39
2022/06/15 10:21:57;;;;;;;3.67;2.70;;;30.10;93.60;;;;;;5062954;28;20180;-40
2022/06/15 10:24:28;;;;;;;3.70;2.25;;;30.10;94.40;;;;;;5080420;28;20161;-38
2022/06/15 10:27:16;;;;;;;2.55;2.35;;;30.00;94.40;;;;;;5045679;28;20204;-39
2022/06/15 10:29:44;;;;;;;4.00;2.70;;;30.20;93.50;;;;;;5062079;28;20173;-39
2022/06/15 10:32:10;;;;;;;2.58;2.38;;;30.20;95.00;;;;;;5061830;28;20176;-38
2022/06/15 10:34:52;;;;;;;3.15;2.33;;;29.80;93.60;;;;;;5046572;28;20181;-38
2022/06/15 10:37:27;;;;;;;3.05;2.60;;;29.90;95.40;;;;;;5061682;28;20193;-41
2022/06/15 10:39:58;;;;;;;6.15;3.15;;;30.20;95.80;;;;;;5079153;28;20172;-44
2022/06/15 10:42:34;;;;;;;5.30;3.00;;;30.20;95.60;;;;;;5046218;28;20188;-39
2022/06/15 10:45:18;;;;;;;4.22;2.40;;;30.40;96.00;;;;;;5079100;28;20299;-43
2022/06/15 10:47:51;;;;;;;4.05;2.47;;;30.10;95.00;;;;;;5050051;28;20236;-40
2022/06/15 10:50:28;;;;;;;3.88;2.60;;;30.20;95.10;;;;;;5044279;28;20264;-39
2022/06/15 10:52:59;;;;;;;3.08;2.78;;;30.40;96.00;;;;;;5061496;28;20214;-39
2022/06/15 11:04:24;;;;;;;4.53;2.53;;;31.10;93.90;;;;;;5069195;28;20267;-38
2022/06/15 11:06:52;;;;;;;4.25;2.42;;;31.00;92.80;;;;;;5055305;28;20299;-39
2022/06/15 11:09:43;;;;;;;5.45;2.58;;;31.20;93.10;;;;;;5072247;28;20177;-43
2022/06/15 11:12:29;;;;;;;3.05;2.55;;;31.20;92.30;;;;;;5092470;28;20165;-39
2022/06/15 11:14:57;;;;;;;3.05;2.50;;;31.40;91.70;;;;;;5075580;28;20180;-39
2022/06/15 11:20:24;;;;;;;3.33;2.13;;;31.60;90.90;;;;;;5076684;28;20211;-39
2022/06/15 11:22:53;;;;;;;3.25;2.50;;;31.80;91.40;;;;;;5059888;28;20177;-41
2022/06/15 11:25:25;;;;;;;4.13;2.50;;;31.80;90.80;;;;;;5050307;28;20184;-39
2022/06/15 11:28:02;;;;;;;4.20;2.45;;;31.80;85.70;;;;;;5065662;28;20208;-43
2022/06/15 11:30:38;;;;;;;2.60;2.10;;;31.90;86.70;;;;;;5110820;28;20164;-40
2022/06/15 11:33:29;;;;;;;2.78;2.10;;;32.00;84.00;;;;;;5073995;28;20173;-39
2022/06/15 11:35:57;;;;;;;2.17;1.95;;;32.30;84.60;;;;;;5087909;28;20192;-38
2022/06/15 11:38:38;;;;;;;2.92;2.00;;;32.50;86.30;;;;;;5076325;28;20259;-42
2022/06/15 11:41:07;;;;;;;2.40;2.20;;;32.70;86.80;;;;;;5085522;28;20183;-40
2022/06/15 11:43:38;;;;;;;2.42;2.10;;;32.50;84.00;;;;;;5087534;28;20277;-40
2022/06/15 11:46:16;;;;;;;3.35;2.35;;;32.40;81.10;;;;;;5087166;28;20204;-42
2022/06/15 11:48:42;;;;;;;1.98;1.88;;;32.50;80.20;;;;;;5084952;28;20239;-37
2022/06/15 11:51:22;;;;;;;2.45;1.88;;;32.40;78.20;;;;;;5094856;28;20202;-39
2022/06/15 11:54:09;;;;;;;2.67;1.95;;;32.30;81.60;;;;;;5066955;28;20246;-37
2022/06/15 11:56:51;;;;;;;2.35;2.15;;;32.60;80.10;;;;;;5037039;28;20205;-41
2022/06/15 11:59:45;;;;;;;2.90;2.40;;;32.60;80.90;;;;;;5055427;28;20321;-43
2022/06/15 12:02:48;;;;;;;3.15;2.08;;;32.70;81.20;;;;;;5038523;28;20177;-40
2022/06/15 12:05:59;;;;;;;2.90;2.30;;;32.60;81.00;;;;;;5038282;28;20260;-40
2022/06/15 12:08:37;;;;;;;3.80;2.47;;;32.60;79.50;;;;;;4974812;28;20298;-41
2022/06/15 12:14:26;;;;;;;2.78;2.47;;;32.70;80.70;;;;;;5020351;28;20185;-44
2022/06/15 12:17:01;;;;;;;3.47;2.25;;;32.80;81.50;;;;;;5054842;28;20205;-38
2022/06/15 12:19:45;;;;;;;3.47;2.20;;;33.10;83.60;;;;;;5055047;28;20180;-39
2022/06/15 12:22:42;;;;;;;3.80;2.28;;;33.30;83.50;;;;;;5038308;28;20219;-41
2022/06/15 12:25:39;;;;;;;3.90;2.28;;;33.10;81.20;;;;;;5046145;28;20176;-41
2022/06/15 12:28:13;;;;;;;3.58;2.25;;;33.10;80.70;;;;;;5056334;28;20207;-38
2022/06/15 12:30:51;;;;;;;2.38;2.17;;;33.30;79.30;;;;;;5065460;28;20195;-40
2022/06/15 12:33:21;;;;;;;2.53;2.15;;;33.30;79.50;;;;;;5068217;28;20208;-44
2022/06/15 12:35:58;;;;;;;2.70;2.50;;;33.30;80.50;;;;;;5060377;28;20208;-40
2022/06/15 12:38:50;;;;;;;4.65;2.35;;;33.60;79.50;;;;;;5063951;28;20181;-41
2022/06/15 12:44:26;;;;;;;4.05;2.55;;;33.60;77.00;;;;;;5064567;28;20173;-42
2022/06/15 12:46:54;;;;;;;4.43;2.50;;;33.70;75.80;;;;;;5046224;28;20209;-39
2022/06/15 12:49:52;;;;;;;3.47;2.60;;;33.40;78.10;;;;;;5046568;28;20180;-40
2022/06/15 14:47:29;;;;;;;5.00;2.40;;;34.40;71.60;;;;;;5036895;28;20190;-94
2022/06/15 14:49:58;;;;;;;4.03;2.45;;;34.40;69.40;;;;;;5008884;28;20201;-94
2022/06/15 14:52:30;;;;;;;4.32;2.47;;;34.60;70.50;;;;;;5001772;28;20209;-94
2022/06/15 14:55:03;;;;;;;2.85;2.47;;;34.60;72.00;;;;;;5001979;28;20171;-93
2022/06/15 14:57:38;;;;;;;4.63;2.50;;;34.70;73.40;;;;;;5017954;28;20233;-93
2022/06/15 15:00:23;;;;;;;4.68;2.63;;;34.60;71.20;;;;;;5017558;28;20228;-93
2022/06/15 15:02:55;;;;;;;4.88;2.70;;;34.30;71.80;;;;;;5001057;28;20202;-94
2022/06/15 15:05:28;;;;;;;2.67;2.45;;;34.30;72.50;;;;;;5014139;28;20213;-94
2022/06/15 15:08:17;;;;;;;5.38;2.53;;;34.10;73.00;;;;;;4984488;28;20171;-93
2022/06/15 15:10:43;;;;;;;4.03;2.50;;;34.10;70.40;;;;;;5009426;28;20214;-86
2022/06/15 15:13:30;;;;;;;4.22;2.40;;;34.00;71.80;;;;;;5012740;28;20186;-93
2022/06/15 15:16:00;;;;;;;2.63;2.42;;;34.10;73.50;;;;;;4998314;28;20202;-94
2022/06/15 15:18:42;;;;;;;3.42;2.90;;;34.20;72.20;;;;;;5007870;28;20199;-83
2022/06/15 15:21:20;;;;;;;2.75;2.55;;;34.40;72.70;;;;;;5002384;28;20256;-93
2022/06/15 15:23:50;;;;;;;3.50;2.42;;;34.40;71.80;;;;;;5019269;28;20253;-94
2022/06/15 15:26:28;;;;;;;3.78;2.20;;;34.50;73.30;;;;;;5002166;28;20175;-94
2022/06/15 15:34:30;;;;;;;3.15;2.88;;;34.30;71.80;;;;;;5035215;28;20178;-94
2022/06/15 15:39:45;;;;;;;2.58;2.33;;;34.40;71.00;;;;;;5013950;28;20175;-92
2022/06/15 15:42:14;;;;;;;2.85;2.30;;;33.80;71.90;;;;;;4982461;28;20222;-92
2022/06/15 15:44:41;;;;;;;3.60;2.65;;;33.70;73.60;;;;;;5018106;28;20178;-91
2022/06/15 15:47:09;;;;;;;4.07;2.38;;;33.60;74.40;;;;;;5022996;28;20182;-91
2022/06/15 15:49:39;;;;;;;2.83;2.38;;;33.70;74.10;;;;;;5040215;28;20202;-92